Time;durP1;ratioP1;P1;durP2;ratioP2;P2;SDS_P1;SDS_P2;PMS_P1;PMS_P2;Temp;Humidity;BMP_temperature;BMP_pressure;BME280_temperature;BME280_humidity;BME280_pressure;Samples;Min_cycle;Max_cycle;Signal;HPM_P1;HPM_P2
2023/08/20 00:00:39;;;;;;;9.33;5.37;;;19.60;99.90;;;;;;4863014;29;20231;-85
2023/08/20 00:03:12;;;;;;;6.50;5.70;;;19.60;99.90;;;;;;4863296;29;20184;-85
2023/08/20 00:05:39;;;;;;;12.67;5.00;;;19.60;99.90;;;;;;4863321;29;20237;-85
2023/08/20 00:08:05;;;;;;;8.03;5.10;;;19.60;99.90;;;;;;4863046;29;20473;-85
2023/08/20 00:10:31;;;;;;;7.03;5.10;;;19.60;99.90;;;;;;4862860;29;20424;-85
2023/08/20 00:12:57;;;;;;;9.43;5.80;;;19.60;99.90;;;;;;4863206;29;20180;-85
2023/08/20 00:15:26;;;;;;;9.40;5.80;;;19.60;99.90;;;;;;4862633;29;20461;-85
2023/08/20 00:17:53;;;;;;;6.20;5.60;;;19.50;99.90;;;;;;4863040;29;20425;-86
2023/08/20 00:20:19;;;;;;;11.33;6.10;;;19.60;99.90;;;;;;4862262;29;20476;-86
2023/08/20 00:22:46;;;;;;;7.43;4.97;;;19.60;99.90;;;;;;4863049;29;20456;-86
2023/08/20 00:25:13;;;;;;;9.40;6.10;;;19.60;99.90;;;;;;4862824;29;20444;-86
2023/08/20 00:27:40;;;;;;;11.33;5.73;;;19.60;99.90;;;;;;4862854;29;20682;-86
2023/08/20 00:30:06;;;;;;;7.17;6.37;;;19.60;99.90;;;;;;4862798;29;20482;-86
2023/08/20 00:32:32;;;;;;;7.83;6.77;;;19.60;99.90;;;;;;4862580;29;20429;-86
2023/08/20 00:34:57;;;;;;;8.93;6.27;;;19.70;99.90;;;;;;4862714;29;20428;-86
2023/08/20 00:37:23;;;;;;;6.57;5.67;;;19.60;99.90;;;;;;4862380;29;20202;-86
2023/08/20 00:39:48;;;;;;;7.00;5.93;;;19.70;99.90;;;;;;4862618;29;20219;-85
2023/08/20 00:42:14;;;;;;;7.93;5.33;;;19.60;99.90;;;;;;4862326;29;20223;-86
2023/08/20 00:44:46;;;;;;;8.80;5.13;;;19.60;99.90;;;;;;4862572;29;20195;-86
2023/08/20 00:47:13;;;;;;;6.03;5.43;;;19.60;99.90;;;;;;4862234;29;20604;-87
2023/08/20 00:49:40;;;;;;;8.50;6.23;;;19.60;99.90;;;;;;4862615;29;20433;-86
2023/08/20 00:52:09;;;;;;;5.97;5.40;;;19.70;99.90;;;;;;4862481;29;20388;-86
2023/08/20 00:54:35;;;;;;;6.63;5.53;;;19.60;99.90;;;;;;4862266;29;20420;-86
2023/08/20 00:57:01;;;;;;;6.90;6.23;;;19.70;99.90;;;;;;4862245;29;20399;-86
2023/08/20 00:59:28;;;;;;;8.97;5.30;;;19.70;99.90;;;;;;4862032;29;20476;-86
2023/08/20 01:01:54;;;;;;;8.43;6.37;;;19.60;99.90;;;;;;4862355;29;20482;-86
2023/08/20 01:04:19;;;;;;;8.50;5.20;;;19.50;99.90;;;;;;4861820;29;20520;-86
2023/08/20 01:06:57;;;;;;;8.77;5.40;;;19.50;99.90;;;;;;4862269;29;20180;-86
2023/08/20 01:09:41;;;;;;;7.47;5.67;;;19.50;99.90;;;;;;4860187;29;20705;-86
2023/08/20 01:12:07;;;;;;;7.73;5.20;;;19.50;99.90;;;;;;4862052;29;20918;-85
2023/08/20 01:14:33;;;;;;;8.13;6.23;;;19.40;99.90;;;;;;4861869;29;20544;-86
2023/08/20 01:16:58;;;;;;;7.77;6.30;;;19.40;99.90;;;;;;4862310;29;20416;-85
2023/08/20 01:19:24;;;;;;;10.07;6.53;;;19.50;99.90;;;;;;4861976;29;20251;-86
2023/08/20 01:22:14;;;;;;;8.60;6.90;;;19.30;99.90;;;;;;4861902;29;20196;-86
2023/08/20 01:25:17;;;;;;;7.13;6.53;;;19.30;99.90;;;;;;4862141;29;20180;-86
2023/08/20 01:28:03;;;;;;;9.17;6.33;;;19.30;99.90;;;;;;4862245;29;20420;-85
2023/08/20 01:30:30;;;;;;;8.87;6.53;;;19.20;99.90;;;;;;4861837;29;20420;-85
2023/08/20 01:32:57;;;;;;;7.10;6.50;;;19.20;99.90;;;;;;4861864;29;20928;-85
2023/08/20 01:35:28;;;;;;;7.50;6.70;;;19.20;99.90;;;;;;4861749;29;20448;-86
2023/08/20 01:37:53;;;;;;;7.20;6.50;;;19.10;99.90;;;;;;4861771;29;20436;-85
2023/08/20 01:40:19;;;;;;;7.37;6.60;;;19.10;99.90;;;;;;4861382;29;20563;-86
2023/08/20 01:42:44;;;;;;;9.03;6.90;;;19.00;99.90;;;;;;4861394;29;20271;-86
2023/08/20 01:45:10;;;;;;;12.00;6.33;;;19.00;99.90;;;;;;4861900;29;20199;-85
2023/08/20 01:47:36;;;;;;;7.33;6.50;;;18.90;99.90;;;;;;4861574;29;20610;-86
2023/08/20 01:50:02;;;;;;;11.30;6.53;;;18.90;99.90;;;;;;4861825;29;20506;-85
2023/08/20 01:52:29;;;;;;;7.33;5.57;;;19.00;99.90;;;;;;4861453;29;20626;-85
2023/08/20 01:54:55;;;;;;;8.80;6.03;;;18.90;99.90;;;;;;4861712;29;20461;-85
2023/08/20 01:57:20;;;;;;;6.07;5.57;;;18.90;99.90;;;;;;4861406;29;20403;-86
2023/08/20 01:59:47;;;;;;;8.57;6.50;;;18.90;99.90;;;;;;4864419;29;20480;-86
2023/08/20 02:02:13;;;;;;;8.23;6.53;;;18.80;99.90;;;;;;4865079;29;20219;-86
2023/08/20 02:04:39;;;;;;;7.80;7.10;;;18.80;99.90;;;;;;4865064;29;20432;-85
2023/08/20 02:07:04;;;;;;;12.50;7.43;;;18.80;99.90;;;;;;4865532;29;20614;-85
2023/08/20 02:09:30;;;;;;;15.30;10.17;;;18.80;99.90;;;;;;4865230;29;20314;-85
2023/08/20 02:11:55;;;;;;;10.50;8.63;;;18.80;99.90;;;;;;4865247;29;20192;-85
2023/08/20 02:14:21;;;;;;;8.80;7.90;;;18.80;99.90;;;;;;4864946;29;20238;-85
2023/08/20 02:16:47;;;;;;;11.00;7.13;;;18.80;99.90;;;;;;4865292;29;20181;-85
2023/08/20 02:19:13;;;;;;;7.50;6.80;;;18.80;99.90;;;;;;4865230;29;20224;-85
2023/08/20 02:21:39;;;;;;;9.27;7.70;;;18.80;99.90;;;;;;4864728;29;20440;-85
2023/08/20 02:24:05;;;;;;;8.83;7.40;;;18.80;99.90;;;;;;4865206;29;20831;-85
2023/08/20 02:26:31;;;;;;;9.80;7.70;;;18.80;99.90;;;;;;4865019;29;20395;-85
2023/08/20 02:28:57;;;;;;;14.73;9.03;;;18.80;99.90;;;;;;4865364;29;20435;-85
2023/08/20 02:31:22;;;;;;;11.40;9.10;;;18.80;99.90;;;;;;4864862;29;20651;-86
2023/08/20 02:33:48;;;;;;;12.17;9.17;;;18.80;99.90;;;;;;4865046;29;20625;-85
2023/08/20 02:36:13;;;;;;;12.17;9.30;;;18.80;99.90;;;;;;4864984;29;20208;-85
2023/08/20 02:38:39;;;;;;;10.83;9.10;;;18.80;99.90;;;;;;4864517;29;20578;-85
2023/08/20 02:41:04;;;;;;;11.87;8.73;;;18.80;99.90;;;;;;4864910;29;20199;-85
2023/08/20 02:43:30;;;;;;;11.63;9.27;;;18.90;99.90;;;;;;4864462;29;20192;-85
2023/08/20 02:45:56;;;;;;;12.40;8.20;;;18.90;99.90;;;;;;4864750;29;20188;-85
2023/08/20 02:48:26;;;;;;;9.07;8.17;;;18.90;99.90;;;;;;4864549;29;20421;-85
2023/08/20 02:50:53;;;;;;;9.20;8.20;;;18.90;99.90;;;;;;4864533;29;20666;-85
2023/08/20 02:53:18;;;;;;;8.20;7.40;;;18.80;99.90;;;;;;4864440;29;20952;-87
2023/08/20 02:55:44;;;;;;;8.73;7.83;;;18.80;99.90;;;;;;4864750;29;20512;-85
2023/08/20 02:58:10;;;;;;;9.73;8.80;;;18.80;99.90;;;;;;4864130;29;20638;-85
2023/08/20 03:00:36;;;;;;;9.77;8.77;;;18.90;99.90;;;;;;4864163;29;20212;-85
2023/08/20 03:03:05;;;;;;;9.90;8.20;;;18.90;99.90;;;;;;4864661;29;20196;-85
2023/08/20 03:05:34;;;;;;;11.03;9.07;;;18.90;99.90;;;;;;4864275;29;20516;-85
2023/08/20 03:08:00;;;;;;;9.20;7.17;;;18.90;99.90;;;;;;4864005;29;20808;-85
2023/08/20 03:10:27;;;;;;;8.47;7.67;;;18.90;99.90;;;;;;4864108;29;20427;-85
2023/08/20 03:12:53;;;;;;;14.40;8.90;;;18.90;99.90;;;;;;4864192;29;20422;-85
2023/08/20 03:15:18;;;;;;;9.93;8.40;;;18.90;99.90;;;;;;4864254;29;20876;-85
2023/08/20 03:17:44;;;;;;;11.17;8.00;;;18.90;99.90;;;;;;4863795;29;20295;-85
2023/08/20 03:20:10;;;;;;;11.07;8.47;;;18.90;99.90;;;;;;4864049;29;20609;-85
2023/08/20 03:22:37;;;;;;;15.20;8.47;;;18.90;99.90;;;;;;4864117;29;20210;-85
2023/08/20 03:25:03;;;;;;;10.73;8.27;;;18.80;99.90;;;;;;4864189;29;20421;-85
2023/08/20 03:27:29;;;;;;;10.43;9.40;;;18.90;99.90;;;;;;4863896;29;20464;-85
2023/08/20 03:29:54;;;;;;;13.10;9.00;;;18.90;99.90;;;;;;4862848;29;20795;-85
2023/08/20 03:32:20;;;;;;;10.40;8.67;;;18.90;99.90;;;;;;4863820;29;20176;-85
2023/08/20 03:34:46;;;;;;;13.27;8.87;;;18.90;99.90;;;;;;4863956;29;20188;-85
2023/08/20 03:37:12;;;;;;;13.23;9.47;;;19.00;99.90;;;;;;4863860;29;20188;-85
2023/08/20 03:39:37;;;;;;;15.53;11.63;;;19.00;99.90;;;;;;4863530;29;20214;-85
2023/08/20 03:42:03;;;;;;;14.53;12.57;;;19.10;99.90;;;;;;4863761;29;20489;-85
2023/08/20 03:44:29;;;;;;;16.47;12.33;;;19.10;99.90;;;;;;4863663;29;20573;-85
2023/08/20 03:46:55;;;;;;;17.33;12.43;;;19.20;99.90;;;;;;4863989;29;20192;-85
2023/08/20 03:49:22;;;;;;;20.20;14.70;;;19.10;99.90;;;;;;4863534;29;20452;-85
2023/08/20 03:51:47;;;;;;;16.27;12.20;;;19.20;99.90;;;;;;4863832;29;20202;-85
2023/08/20 03:54:13;;;;;;;21.50;15.00;;;19.20;99.90;;;;;;4863491;29;20421;-85
2023/08/20 03:56:39;;;;;;;18.47;13.47;;;19.20;99.90;;;;;;4863430;29;20184;-85
2023/08/20 03:59:04;;;;;;;17.63;12.77;;;19.20;99.90;;;;;;4863462;29;20234;-85
2023/08/20 04:01:30;;;;;;;23.50;15.20;;;19.20;99.90;;;;;;4863140;29;20188;-85
2023/08/20 04:03:56;;;;;;;22.13;15.00;;;19.30;99.90;;;;;;4863340;29;20192;-85
2023/08/20 04:06:21;;;;;;;19.20;13.27;;;19.20;99.90;;;;;;4863464;29;20406;-85
2023/08/20 04:08:47;;;;;;;17.13;12.40;;;19.10;99.90;;;;;;4863132;29;20267;-85
2023/08/20 04:11:13;;;;;;;25.53;15.67;;;19.20;99.90;;;;;;4863207;29;20196;-85
2023/08/20 04:13:39;;;;;;;21.23;14.80;;;19.10;99.90;;;;;;4863147;29;20461;-85
2023/08/20 04:16:05;;;;;;;26.60;17.70;;;19.10;99.90;;;;;;4863091;29;20192;-85
2023/08/20 04:18:30;;;;;;;33.67;19.00;;;19.10;99.90;;;;;;4862683;29;20398;-85
2023/08/20 04:20:57;;;;;;;30.70;18.67;;;19.10;99.90;;;;;;4862619;29;20192;-85
2023/08/20 04:23:23;;;;;;;26.47;17.70;;;19.20;99.90;;;;;;4862692;29;20662;-85
2023/08/20 04:25:48;;;;;;;29.27;18.53;;;19.10;99.90;;;;;;4862766;29;20532;-85
2023/08/20 04:28:14;;;;;;;30.13;18.77;;;19.10;99.90;;;;;;4862955;29;20400;-86
2023/08/20 04:30:40;;;;;;;35.37;21.53;;;19.20;99.90;;;;;;4862578;29;20613;-85
2023/08/20 04:33:05;;;;;;;39.67;20.80;;;19.20;99.90;;;;;;4862646;29;20264;-86
2023/08/20 04:35:31;;;;;;;37.73;20.80;;;19.20;99.90;;;;;;4862811;29;20187;-86
2023/08/20 04:37:58;;;;;;;29.77;20.17;;;19.10;99.90;;;;;;4862856;29;20220;-86
2023/08/20 04:40:23;;;;;;;33.03;17.47;;;19.20;99.90;;;;;;4862352;29;20841;-85
2023/08/20 04:42:49;;;;;;;31.27;19.03;;;19.20;99.90;;;;;;4862283;29;20520;-86
2023/08/20 04:45:17;;;;;;;37.20;19.00;;;19.30;99.90;;;;;;4862760;29;20180;-86
2023/08/20 04:47:43;;;;;;;33.37;20.77;;;19.20;99.90;;;;;;4862385;29;20192;-86
2023/08/20 04:50:09;;;;;;;39.73;21.10;;;19.20;99.90;;;;;;4862619;29;20916;-85
2023/08/20 04:52:35;;;;;;;27.67;18.63;;;19.20;99.90;;;;;;4862609;29;20188;-85
2023/08/20 04:55:01;;;;;;;26.43;17.43;;;19.10;99.90;;;;;;4862563;29;20406;-85
2023/08/20 04:57:27;;;;;;;26.20;16.60;;;19.00;99.90;;;;;;4862167;29;20697;-86
2023/08/20 04:59:53;;;;;;;30.20;16.60;;;19.00;99.90;;;;;;4862408;29;20530;-80
2023/08/20 05:02:19;;;;;;;27.03;16.07;;;18.90;99.90;;;;;;4862530;29;20196;-80
2023/08/20 05:04:44;;;;;;;21.50;14.20;;;18.90;99.90;;;;;;4862152;29;20184;-80
2023/08/20 05:07:10;;;;;;;29.87;15.20;;;18.90;99.90;;;;;;4862201;29;20399;-80
2023/08/20 05:09:36;;;;;;;23.77;16.20;;;18.90;99.90;;;;;;4861649;29;20274;-80
2023/08/20 05:12:02;;;;;;;29.47;16.57;;;19.00;99.90;;;;;;4862165;29;20194;-80
2023/08/20 05:14:28;;;;;;;22.13;15.23;;;19.20;99.90;;;;;;4862101;29;20399;-81
2023/08/20 05:16:54;;;;;;;31.07;15.70;;;19.30;99.90;;;;;;4862281;29;20531;-80
2023/08/20 05:19:19;;;;;;;23.40;15.23;;;19.30;99.90;;;;;;4861996;29;21013;-87
2023/08/20 05:21:45;;;;;;;35.70;17.57;;;19.40;99.90;;;;;;4862109;29;20555;-87
2023/08/20 05:24:11;;;;;;;25.00;15.73;;;19.30;99.90;;;;;;4861945;29;20195;-87
2023/08/20 05:26:36;;;;;;;17.60;14.17;;;19.30;99.90;;;;;;4861886;29;20245;-87
2023/08/20 05:29:02;;;;;;;23.00;15.77;;;19.20;99.90;;;;;;4860967;29;20196;-87
2023/08/20 05:31:28;;;;;;;22.20;16.73;;;19.20;99.90;;;;;;4861688;29;20207;-92
2023/08/20 05:33:53;;;;;;;23.07;14.50;;;19.20;99.90;;;;;;4861444;29;20184;-87
2023/08/20 05:36:19;;;;;;;22.50;14.43;;;19.10;99.90;;;;;;4861813;29;20444;-87
2023/08/20 05:38:44;;;;;;;25.83;15.17;;;19.20;99.90;;;;;;4861806;29;20566;-87
2023/08/20 05:41:10;;;;;;;22.00;14.97;;;19.20;99.90;;;;;;4861743;29;20198;-87
2023/08/20 05:43:38;;;;;;;21.53;15.70;;;19.30;99.90;;;;;;4861162;29;20192;-87
2023/08/20 05:46:04;;;;;;;26.83;15.90;;;19.30;99.90;;;;;;4860669;29;20220;-87
2023/08/20 05:48:29;;;;;;;25.47;16.33;;;19.30;99.90;;;;;;4860464;29;20432;-87
2023/08/20 05:50:57;;;;;;;23.70;15.77;;;19.30;99.90;;;;;;4861656;29;20189;-86
2023/08/20 05:53:23;;;;;;;26.07;16.03;;;19.30;99.90;;;;;;4860423;29;20192;-86
2023/08/20 05:55:48;;;;;;;26.60;17.60;;;19.30;99.90;;;;;;4861122;29;20447;-87
2023/08/20 05:58:14;;;;;;;29.33;17.97;;;19.40;99.90;;;;;;4861799;29;20207;-86
2023/08/20 06:00:40;;;;;;;26.27;17.80;;;19.50;99.90;;;;;;4860324;29;20563;-87
2023/08/20 06:03:07;;;;;;;21.90;17.03;;;19.40;99.90;;;;;;4861729;29;20188;-86
2023/08/20 06:05:33;;;;;;;25.40;18.07;;;19.30;99.90;;;;;;4860070;29;20189;-87
2023/08/20 06:07:59;;;;;;;27.67;17.80;;;19.30;99.90;;;;;;4861254;29;20450;-87
2023/08/20 06:10:24;;;;;;;30.73;19.30;;;19.30;99.90;;;;;;4861615;29;20413;-87
2023/08/20 06:12:50;;;;;;;22.77;17.50;;;19.40;99.90;;;;;;4861430;29;20310;-87
2023/08/20 06:15:15;;;;;;;24.73;16.67;;;19.40;99.90;;;;;;4863714;29;20188;-87
2023/08/20 06:17:41;;;;;;;27.87;16.50;;;19.40;99.90;;;;;;4861932;29;20191;-87
2023/08/20 06:20:08;;;;;;;28.50;17.50;;;19.50;99.90;;;;;;4861408;29;20208;-86
2023/08/20 06:22:34;;;;;;;36.70;17.40;;;19.50;99.90;;;;;;4861415;29;20192;-87
2023/08/20 06:25:00;;;;;;;22.20;16.80;;;19.60;99.90;;;;;;4861301;29;20423;-87
2023/08/20 06:27:26;;;;;;;23.87;15.93;;;19.50;99.90;;;;;;4861349;29;20752;-86
2023/08/20 06:29:51;;;;;;;22.03;16.03;;;19.60;99.90;;;;;;4859595;29;20559;-86
2023/08/20 06:32:17;;;;;;;17.77;14.67;;;19.70;99.90;;;;;;4861322;29;20188;-87
2023/08/20 06:34:42;;;;;;;22.87;16.50;;;19.70;99.90;;;;;;4859992;29;20192;-87
2023/08/20 06:37:08;;;;;;;27.80;16.73;;;19.60;99.90;;;;;;4861389;29;20280;-87
2023/08/20 06:39:34;;;;;;;28.33;18.70;;;19.80;99.90;;;;;;4861000;29;20216;-87
2023/08/20 06:42:00;;;;;;;23.40;17.57;;;19.90;99.90;;;;;;4860984;29;20248;-87
2023/08/20 06:44:25;;;;;;;31.57;18.13;;;20.00;99.90;;;;;;4861771;29;20618;-87
2023/08/20 06:46:51;;;;;;;26.40;18.17;;;20.10;99.90;;;;;;4864363;29;20487;-88
2023/08/20 06:49:17;;;;;;;29.37;17.23;;;20.10;99.90;;;;;;4865052;29;20184;-87
2023/08/20 06:51:42;;;;;;;25.67;18.87;;;20.10;99.90;;;;;;4864107;29;20189;-87
2023/08/20 06:54:08;;;;;;;33.40;19.57;;;20.20;99.90;;;;;;4863780;29;20177;-87
2023/08/20 06:56:33;;;;;;;24.37;18.07;;;20.20;99.90;;;;;;4864074;29;20217;-88
2023/08/20 06:59:00;;;;;;;27.63;18.23;;;20.30;99.90;;;;;;4864265;29;20568;-87
2023/08/20 07:01:26;;;;;;;27.77;18.73;;;20.40;99.90;;;;;;4864588;29;20421;-87
2023/08/20 07:03:51;;;;;;;29.97;19.40;;;20.40;99.90;;;;;;4865353;29;20424;-87
2023/08/20 07:06:18;;;;;;;23.57;17.77;;;20.40;99.90;;;;;;4865541;29;20188;-87
2023/08/20 07:08:44;;;;;;;26.70;20.67;;;20.40;99.90;;;;;;4864336;29;20244;-87
2023/08/20 07:11:09;;;;;;;22.00;17.70;;;20.50;99.90;;;;;;4864211;29;20940;-87
2023/08/20 07:13:35;;;;;;;24.23;18.07;;;20.50;99.90;;;;;;4864206;29;20685;-88
2023/08/20 07:16:01;;;;;;;21.77;16.90;;;20.50;99.90;;;;;;4862969;29;20641;-87
2023/08/20 07:18:27;;;;;;;25.97;19.60;;;20.60;99.90;;;;;;4864262;29;20192;-86
2023/08/20 07:20:52;;;;;;;27.70;18.90;;;20.60;99.90;;;;;;4864194;29;21004;-87
2023/08/20 07:23:18;;;;;;;28.87;20.10;;;20.70;99.90;;;;;;4864543;29;20188;-87
2023/08/20 07:25:44;;;;;;;28.17;17.90;;;20.70;99.90;;;;;;4862770;29;20526;-87
2023/08/20 07:28:10;;;;;;;28.27;18.67;;;20.80;99.90;;;;;;4864187;29;20184;-87
2023/08/20 07:30:36;;;;;;;27.30;19.67;;;20.80;99.90;;;;;;4863807;29;20825;-87
2023/08/20 07:33:03;;;;;;;30.40;20.87;;;20.80;99.90;;;;;;4863969;29;20188;-87
2023/08/20 07:35:28;;;;;;;29.10;21.30;;;20.70;99.90;;;;;;4863526;29;20407;-87
2023/08/20 07:37:54;;;;;;;28.10;20.43;;;20.90;99.90;;;;;;4863645;29;20426;-87
2023/08/20 07:40:20;;;;;;;34.87;20.57;;;21.00;99.90;;;;;;4864257;29;20212;-87
2023/08/20 07:42:45;;;;;;;32.20;20.57;;;21.10;99.90;;;;;;4863532;29;20630;-87
2023/08/20 07:45:11;;;;;;;28.50;19.80;;;21.10;99.90;;;;;;4862447;29;20217;-87
2023/08/20 07:47:37;;;;;;;30.57;19.80;;;21.20;99.90;;;;;;4862503;29;20185;-87
2023/08/20 07:50:04;;;;;;;27.73;19.77;;;21.30;99.90;;;;;;4863536;29;20189;-87
2023/08/20 07:52:30;;;;;;;28.40;18.33;;;21.40;99.90;;;;;;4863448;29;20399;-87
2023/08/20 07:54:56;;;;;;;24.27;17.63;;;21.60;99.90;;;;;;4862130;29;20876;-87
2023/08/20 07:57:23;;;;;;;26.70;20.50;;;21.70;99.90;;;;;;4862395;29;20425;-87
2023/08/20 07:59:49;;;;;;;28.53;18.70;;;21.70;99.90;;;;;;4862983;29;20208;-87
2023/08/20 08:02:14;;;;;;;31.10;19.67;;;21.90;99.90;;;;;;4863395;29;20481;-87
2023/08/20 08:04:40;;;;;;;24.63;19.00;;;21.90;99.90;;;;;;4863006;29;20387;-87
2023/08/20 08:07:06;;;;;;;21.87;17.60;;;22.00;99.90;;;;;;4863529;29;20192;-88
2023/08/20 08:09:32;;;;;;;23.43;18.10;;;22.20;99.90;;;;;;4862944;29;20244;-87
2023/08/20 08:11:58;;;;;;;23.10;18.60;;;22.30;99.90;;;;;;4862988;29;20188;-86
2023/08/20 08:14:24;;;;;;;22.57;16.97;;;22.40;99.90;;;;;;4863009;29;20408;-86
2023/08/20 08:16:50;;;;;;;23.13;17.67;;;22.50;99.90;;;;;;4862863;29;20428;-87
2023/08/20 08:19:16;;;;;;;19.70;15.30;;;22.90;99.90;;;;;;4862612;29;20315;-87
2023/08/20 08:21:43;;;;;;;22.70;14.50;;;23.20;99.90;;;;;;4861615;29;20456;-87
2023/08/20 08:24:09;;;;;;;22.03;17.60;;;23.50;99.90;;;;;;4861750;29;20815;-87
2023/08/20 08:26:38;;;;;;;19.27;15.90;;;23.60;99.90;;;;;;4862993;29;20485;-87
2023/08/20 08:29:05;;;;;;;18.27;14.77;;;24.00;99.90;;;;;;4861401;29;20252;-87
2023/08/20 08:31:30;;;;;;;18.10;12.37;;;24.10;99.90;;;;;;4861723;29;20460;-87
2023/08/20 08:33:56;;;;;;;19.87;14.57;;;24.60;99.90;;;;;;4861035;29;20429;-87
2023/08/20 08:36:24;;;;;;;14.07;11.60;;;24.60;99.90;;;;;;4862697;29;20263;-87
2023/08/20 08:38:50;;;;;;;17.83;15.03;;;24.80;99.90;;;;;;4862505;29;20621;-87
2023/08/20 08:41:16;;;;;;;13.70;11.97;;;25.20;99.90;;;;;;4862669;29;20451;-87
2023/08/20 08:43:42;;;;;;;16.40;14.30;;;25.60;99.90;;;;;;4862090;29;20904;-88
2023/08/20 08:46:14;;;;;;;23.37;13.70;;;25.90;99.90;;;;;;4862474;29;20441;-87
2023/08/20 08:48:42;;;;;;;15.20;13.03;;;25.70;99.90;;;;;;4862188;29;20184;-88
2023/08/20 08:51:11;;;;;;;16.27;13.90;;;25.80;99.90;;;;;;4862357;29;20753;-87
2023/08/20 08:53:37;;;;;;;14.07;12.07;;;25.90;99.90;;;;;;4862208;29;20477;-88
2023/08/20 08:56:03;;;;;;;16.60;11.93;;;26.00;99.90;;;;;;4862015;29;20425;-88
2023/08/20 08:58:29;;;;;;;14.90;10.97;;;26.50;99.90;;;;;;4862044;29;20188;-88
2023/08/20 09:00:54;;;;;;;11.23;9.93;;;27.00;99.90;;;;;;4861712;29;20485;-87
2023/08/20 09:03:20;;;;;;;14.23;11.87;;;27.20;99.90;;;;;;4861917;29;20185;-87
2023/08/20 09:06:08;;;;;;;13.67;12.13;;;26.90;99.90;;;;;;4861642;29;20192;-88
2023/08/20 09:08:33;;;;;;;13.43;10.83;;;26.40;99.90;;;;;;4862014;29;20472;-88
2023/08/20 09:11:01;;;;;;;12.50;11.30;;;27.20;99.90;;;;;;4861560;29;20473;-87
2023/08/20 09:13:34;;;;;;;15.33;9.57;;;27.60;99.90;;;;;;4862535;29;20184;-88
2023/08/20 09:16:03;;;;;;;12.53;9.80;;;27.40;99.90;;;;;;4861479;29;20993;-88
2023/08/20 09:18:29;;;;;;;13.93;9.37;;;27.10;99.90;;;;;;4861585;29;20425;-88
2023/08/20 09:20:57;;;;;;;9.97;8.60;;;27.20;99.90;;;;;;4861462;29;20484;-88
2023/08/20 09:23:22;;;;;;;13.00;8.10;;;28.20;99.90;;;;;;4861384;29;20491;-88
2023/08/20 09:25:49;;;;;;;9.97;8.93;;;27.80;99.90;;;;;;4862743;29;20511;-88
2023/08/20 09:28:14;;;;;;;10.23;9.23;;;28.00;99.90;;;;;;4862157;29;20192;-88
2023/08/20 09:30:41;;;;;;;9.27;7.70;;;27.90;99.90;;;;;;4862665;29;20437;-88
2023/08/20 09:33:15;;;;;;;11.07;7.60;;;28.90;99.90;;;;;;4861451;29;20251;-88
2023/08/20 09:35:50;;;;;;;11.60;9.63;;;28.60;99.90;;;;;;4861786;29;20416;-88
2023/08/20 09:38:21;;;;;;;9.93;8.53;;;29.10;99.90;;;;;;4860453;29;20510;-87
2023/08/20 09:40:49;;;;;;;10.50;8.10;;;29.10;99.90;;;;;;4861463;29;20979;-88
2023/08/20 09:43:16;;;;;;;9.20;8.40;;;29.10;99.90;;;;;;4861502;29;20445;-87
2023/08/20 09:45:43;;;;;;;11.50;10.33;;;28.50;99.90;;;;;;4863987;29;20432;-88
2023/08/20 09:48:11;;;;;;;10.93;9.83;;;28.20;99.90;;;;;;4861836;29;20421;-89
2023/08/20 09:50:37;;;;;;;12.70;9.40;;;27.70;99.90;;;;;;4863112;29;20425;-89
2023/08/20 09:53:17;;;;;;;9.50;8.60;;;28.10;99.90;;;;;;4862992;29;21363;-88
2023/08/20 09:55:44;;;;;;;9.80;8.80;;;29.00;99.90;;;;;;4861646;29;20445;-88
2023/08/20 09:58:11;;;;;;;11.00;9.83;;;30.10;99.90;;;;;;4861802;29;20436;-88
2023/08/20 10:00:38;;;;;;;10.73;8.57;;;29.90;99.90;;;;;;4861165;29;20997;-88
2023/08/20 10:03:04;;;;;;;10.57;9.07;;;29.50;99.90;;;;;;4860610;29;20431;-88
2023/08/20 10:05:31;;;;;;;11.40;9.77;;;29.10;99.90;;;;;;4860301;29;20515;-88
2023/08/20 10:07:58;;;;;;;10.47;9.00;;;28.60;99.90;;;;;;4860934;29;20472;-87
2023/08/20 10:10:25;;;;;;;11.93;10.60;;;28.00;99.90;;;;;;4861345;29;20428;-88
2023/08/20 10:12:51;;;;;;;9.27;8.20;;;27.90;99.90;;;;;;4861088;29;20493;-89
2023/08/20 10:15:17;;;;;;;11.10;8.93;;;28.20;99.90;;;;;;4859983;29;20433;-88
2023/08/20 10:17:45;;;;;;;10.00;7.80;;;28.40;99.90;;;;;;4861522;29;20489;-88
2023/08/20 10:20:14;;;;;;;7.77;7.07;;;27.90;99.90;;;;;;4863231;29;20468;-88
2023/08/20 10:22:41;;;;;;;8.83;8.00;;;28.50;99.90;;;;;;4864897;29;20429;-88
2023/08/20 10:25:08;;;;;;;9.90;8.03;;;29.20;99.90;;;;;;4864512;29;20428;-88
2023/08/20 10:27:37;;;;;;;9.37;7.60;;;29.40;99.90;;;;;;4864777;29;20428;-88
2023/08/20 10:30:17;;;;;;;12.17;8.40;;;30.90;99.90;;;;;;4864269;29;20425;-87
2023/08/20 10:32:53;;;;;;;9.60;8.80;;;31.10;99.90;;;;;;4866226;29;20433;-89
2023/08/20 10:35:25;;;;;;;8.90;7.63;;;30.10;99.90;;;;;;4865665;29;20948;-88
2023/08/20 10:38:03;;;;;;;10.10;9.10;;;29.50;99.90;;;;;;4866102;29;20488;-88
2023/08/20 10:41:00;;;;;;;9.43;8.43;;;29.20;99.90;;;;;;4864665;29;20471;-88
2023/08/20 10:43:25;;;;;;;8.80;7.90;;;29.00;99.90;;;;;;4864455;29;20893;-88
2023/08/20 10:46:08;;;;;;;9.50;8.70;;;29.00;99.90;;;;;;4863797;29;20448;-88
2023/08/20 10:48:36;;;;;;;12.07;9.03;;;28.90;99.90;;;;;;4864471;29;20180;-88
2023/08/20 10:51:11;;;;;;;9.07;8.30;;;28.50;99.90;;;;;;4864048;29;20424;-88
2023/08/20 10:53:37;;;;;;;9.10;7.70;;;29.20;99.90;;;;;;4864243;29;20475;-89
2023/08/20 10:56:14;;;;;;;10.20;7.63;;;30.00;99.90;;;;;;4866034;29;20515;-89
2023/08/20 10:58:46;;;;;;;7.85;6.95;;;30.50;99.90;;;;;;4865482;29;20744;-89
2023/08/20 11:01:15;;;;;;;6.50;5.97;;;31.20;99.90;;;;;;4864267;29;20455;-88
2023/08/20 11:03:42;;;;;;;11.00;7.30;;;31.70;99.90;;;;;;4863085;29;20917;-90
2023/08/20 11:06:07;;;;;;;7.77;7.07;;;31.90;99.90;;;;;;4866132;29;20444;-90
2023/08/20 11:08:34;;;;;;;6.80;6.20;;;31.70;99.90;;;;;;4867109;29;20476;-89
2023/08/20 11:11:00;;;;;;;9.60;7.50;;;31.90;99.90;;;;;;4864311;29;20187;-89
2023/08/20 11:13:25;;;;;;;7.63;6.87;;;32.20;99.90;;;;;;4862779;29;20421;-88
2023/08/20 11:15:51;;;;;;;9.37;7.37;;;32.00;99.90;;;;;;4863853;29;20421;-88
2023/08/20 11:18:17;;;;;;;8.10;7.30;;;31.50;99.90;;;;;;4863416;29;20192;-88
2023/08/20 11:20:43;;;;;;;7.87;7.00;;;31.20;99.90;;;;;;4863466;29;20548;-88
2023/08/20 11:23:10;;;;;;;7.97;6.73;;;31.10;99.90;;;;;;4863443;29;20644;-87
2023/08/20 11:25:42;;;;;;;9.00;8.10;;;31.00;99.90;;;;;;4862456;29;20516;-88
2023/08/20 11:28:07;;;;;;;9.13;6.37;;;30.30;99.90;;;;;;4862359;29;20917;-89
2023/08/20 11:30:33;;;;;;;13.60;5.80;;;30.40;99.90;;;;;;4863221;29;20440;-89
2023/08/20 11:32:59;;;;;;;5.70;5.20;;;31.20;99.90;;;;;;4847035;29;20192;-89
2023/08/20 11:35:25;;;;;;;9.57;6.40;;;31.90;99.90;;;;;;4862303;29;20184;-89
2023/08/20 11:37:52;;;;;;;5.97;5.47;;;32.20;99.90;;;;;;4863069;29;20185;-90
2023/08/20 11:40:20;;;;;;;6.50;5.43;;;32.60;99.90;;;;;;4863352;29;20925;-89
2023/08/20 11:42:46;;;;;;;6.17;5.63;;;33.40;99.90;;;;;;4863517;29;20424;-89
2023/08/20 11:45:12;;;;;;;7.90;5.63;;;34.20;99.90;;;;;;4863471;29;20425;-89
2023/08/20 11:47:41;;;;;;;6.50;5.90;;;33.30;99.90;;;;;;4864733;29;20196;-89
2023/08/20 11:50:08;;;;;;;5.70;5.10;;;33.40;99.90;;;;;;4870640;29;20198;-88
2023/08/20 11:52:36;;;;;;;5.70;5.07;;;32.70;99.90;;;;;;4865192;29;20453;-88
2023/08/20 11:55:02;;;;;;;6.67;6.17;;;32.60;99.90;;;;;;4863086;29;20508;-88
2023/08/20 11:57:31;;;;;;;5.70;5.10;;;32.40;99.90;;;;;;4861657;29;20550;-87
2023/08/20 12:00:04;;;;;;;5.43;4.93;;;32.50;99.90;;;;;;4862605;29;20871;-88
2023/08/20 12:02:30;;;;;;;5.67;5.17;;;32.90;99.90;;;;;;4863318;29;20412;-89
2023/08/20 12:04:59;;;;;;;5.90;5.43;;;32.90;99.90;;;;;;4862599;29;20421;-88
2023/08/20 12:07:26;;;;;;;6.67;5.53;;;32.10;99.90;;;;;;4861663;29;20248;-88
2023/08/20 12:09:53;;;;;;;6.03;5.50;;;32.20;99.90;;;;;;4860833;29;20568;-89
2023/08/20 12:12:20;;;;;;;5.77;5.20;;;32.40;99.90;;;;;;4862627;29;20421;-89
2023/08/20 12:14:46;;;;;;;6.90;5.30;;;32.90;99.90;;;;;;4861408;29;20957;-88
2023/08/20 12:17:11;;;;;;;7.17;5.40;;;33.30;99.90;;;;;;4862466;29;20842;-88
2023/08/20 12:19:37;;;;;;;5.23;4.73;;;33.30;99.90;;;;;;4862539;29;20211;-88
2023/08/20 12:22:03;;;;;;;6.80;5.00;;;33.50;99.90;;;;;;4862213;29;20244;-89
2023/08/20 12:24:29;;;;;;;5.40;4.90;;;34.10;99.90;;;;;;4862559;29;20195;-89
2023/08/20 12:26:55;;;;;;;5.83;5.23;;;34.20;99.90;;;;;;4862230;29;20188;-89
2023/08/20 12:29:20;;;;;;;5.53;5.13;;;33.80;99.90;;;;;;4862338;29;20192;-88
2023/08/20 12:31:46;;;;;;;4.87;4.47;;;33.50;99.90;;;;;;4861042;29;20217;-89
2023/08/20 12:34:12;;;;;;;5.67;4.57;;;32.60;99.90;;;;;;4862346;29;20192;-90